createdAt,value
2019-03-20T00:00:49.086Z,9.40
2019-03-20T00:03:19.129Z,10.03
2019-03-20T00:05:47.571Z,8.95
2019-03-20T00:08:16.011Z,10.45
2019-03-20T00:10:44.756Z,9.80
2019-03-20T00:13:13.360Z,9.78
2019-03-20T00:16:12.184Z,9.78
2019-03-20T00:18:40.636Z,10.30
2019-03-20T00:21:09.100Z,9.85
2019-03-20T00:23:37.543Z,9.33
2019-03-20T00:26:06.102Z,8.65
2019-03-20T00:28:34.623Z,9.63
2019-03-20T00:31:03.748Z,8.60
2019-03-20T00:33:32.190Z,8.78
2019-03-20T00:36:00.777Z,8.40
2019-03-20T00:38:29.313Z,8.08
2019-03-20T00:40:57.769Z,7.83
2019-03-20T00:43:26.313Z,8.23
2019-03-20T00:45:54.862Z,8.53
2019-03-20T00:48:23.583Z,8.60
2019-03-20T00:50:52.115Z,8.48
2019-03-20T00:53:20.667Z,9.18
2019-03-20T00:55:49.182Z,9.03
2019-03-20T00:58:17.660Z,8.70
2019-03-20T01:00:46.103Z,9.05
2019-03-20T01:03:14.885Z,9.50
2019-03-20T01:05:43.330Z,9.23
2019-03-20T01:08:11.949Z,8.80
2019-03-20T01:10:40.387Z,8.60
2019-03-20T01:13:09.271Z,8.88
2019-03-20T01:15:37.756Z,8.33
2019-03-20T01:18:06.267Z,8.88
2019-03-20T01:20:35.011Z,8.60
2019-03-20T01:23:03.482Z,8.48
2019-03-20T01:25:31.948Z,8.40
2019-03-20T01:28:00.388Z,8.95
2019-03-20T01:30:39.449Z,8.50
2019-03-20T01:33:12.122Z,8.28
2019-03-20T01:35:41.231Z,9.80
2019-03-20T01:38:10.576Z,8.85
2019-03-20T01:40:40.459Z,9.33
2019-03-20T01:43:09.490Z,9.20
2019-03-20T01:45:38.102Z,7.90
2019-03-20T01:48:06.726Z,8.08
2019-03-20T01:50:35.170Z,7.95
2019-03-20T01:53:04.893Z,8.90
2019-03-20T01:55:33.484Z,9.20
2019-03-20T01:58:01.949Z,9.13
2019-03-20T02:00:30.395Z,9.90
2019-03-20T02:02:58.896Z,8.20
2019-03-20T02:05:35.673Z,9.53
2019-03-20T02:07:57.686Z,9.50
2019-03-20T02:10:29.328Z,8.83
2019-03-20T02:12:58.826Z,9.83
2019-03-20T02:15:38.162Z,9.25
2019-03-20T02:17:57.989Z,10.10
2019-03-20T02:20:26.802Z,9.20
2019-03-20T02:22:55.243Z,9.13
2019-03-20T02:25:23.705Z,9.70
2019-03-20T02:27:52.402Z,9.25
2019-03-20T02:30:21.368Z,9.28
2019-03-20T02:33:20.321Z,9.23
2019-03-20T02:35:51.733Z,9.90
2019-03-20T02:38:19.201Z,9.80
2019-03-20T02:40:47.682Z,9.40
2019-03-20T02:43:16.389Z,8.58
2019-03-20T02:45:44.827Z,9.43
2019-03-20T02:48:13.287Z,9.68
2019-03-20T02:50:41.723Z,9.58
2019-03-20T02:53:10.186Z,9.43
2019-03-20T02:55:38.619Z,9.35
2019-03-20T02:58:07.163Z,9.18
2019-03-20T03:00:35.661Z,8.70
2019-03-20T03:03:04.928Z,8.85
2019-03-20T03:05:33.836Z,8.78
2019-03-20T03:08:02.323Z,9.48
2019-03-20T03:10:30.846Z,9.50
2019-03-20T03:13:05.328Z,10.25
2019-03-20T03:15:33.804Z,10.65
2019-03-20T03:18:02.243Z,9.53
2019-03-20T03:20:30.703Z,9.83
2019-03-20T03:22:59.155Z,9.90
2019-03-20T03:25:27.623Z,9.83
2019-03-20T03:27:56.149Z,9.48
2019-03-20T03:30:24.879Z,11.20
2019-03-20T03:32:53.668Z,10.30
2019-03-20T03:35:22.144Z,10.32
2019-03-20T03:37:50.601Z,10.00
2019-03-20T03:40:20.206Z,10.25
2019-03-20T03:42:48.721Z,10.72
2019-03-20T03:45:17.554Z,11.22
2019-03-20T03:47:46.089Z,11.25
2019-03-20T03:50:14.845Z,10.03
2019-03-20T03:52:43.369Z,10.80
2019-03-20T03:55:15.632Z,10.32
2019-03-20T03:57:44.580Z,10.38
2019-03-20T04:00:18.137Z,10.32
2019-03-20T04:02:46.775Z,11.83
2019-03-20T04:05:15.388Z,11.10
2019-03-20T04:07:43.918Z,11.28
2019-03-20T04:10:19.398Z,10.60
2019-03-20T04:12:47.861Z,10.60
2019-03-20T04:15:17.433Z,10.25
2019-03-20T04:17:49.544Z,10.80
2019-03-20T04:20:19.145Z,11.40
2019-03-20T04:22:51.821Z,11.10
2019-03-20T04:25:20.264Z,14.38
2019-03-20T04:27:48.796Z,12.50
2019-03-20T04:30:18.617Z,13.50
2019-03-20T04:32:47.142Z,12.78
2019-03-20T04:35:15.846Z,11.60
2019-03-20T04:37:44.355Z,12.00
2019-03-20T04:40:17.303Z,11.70
2019-03-20T04:42:45.827Z,11.18
2019-03-20T04:45:15.039Z,10.75
2019-03-20T04:47:44.102Z,10.35
2019-03-20T04:50:16.250Z,10.48
2019-03-20T04:52:44.766Z,11.35
2019-03-20T04:55:13.606Z,10.63
2019-03-20T04:57:42.078Z,10.88
2019-03-20T05:00:15.996Z,11.15
2019-03-20T05:02:44.559Z,10.65
2019-03-20T05:05:13.156Z,10.58
2019-03-20T05:07:41.802Z,12.73
2019-03-20T05:10:12.468Z,11.38
2019-03-20T05:12:40.932Z,12.13
2019-03-20T05:15:11.307Z,11.65
2019-03-20T05:17:40.023Z,11.57
2019-03-20T05:20:16.984Z,11.20
2019-03-20T05:22:45.518Z,11.43
2019-03-20T05:25:13.978Z,11.53
2019-03-20T05:27:42.453Z,10.78
2019-03-20T05:30:15.844Z,11.38
2019-03-20T05:32:44.478Z,11.68
2019-03-20T05:35:13.002Z,11.20
2019-03-20T05:37:41.510Z,10.98
2019-03-20T05:40:14.920Z,11.50
2019-03-20T05:42:43.437Z,11.35
2019-03-20T05:45:14.017Z,14.25
2019-03-20T05:47:42.458Z,13.53
2019-03-20T05:50:14.014Z,12.63
2019-03-20T05:52:42.735Z,11.73
2019-03-20T05:55:11.327Z,11.28
2019-03-20T05:57:40.166Z,10.35
2019-03-20T06:00:20.515Z,11.78
2019-03-20T06:02:48.979Z,10.45
2019-03-20T06:05:17.605Z,11.12
2019-03-20T06:07:46.134Z,11.35
2019-03-20T06:10:15.919Z,11.38
2019-03-20T06:12:44.481Z,12.37
2019-03-20T06:15:14.264Z,11.78
2019-03-20T06:17:42.732Z,11.35
2019-03-20T06:20:15.013Z,12.07
2019-03-20T06:22:43.625Z,11.38
2019-03-20T06:25:13.574Z,11.57
2019-03-20T06:27:42.128Z,11.70
2019-03-20T06:30:15.763Z,11.20
2019-03-20T06:32:44.295Z,13.13
2019-03-20T06:35:13.825Z,13.25
2019-03-20T06:37:45.820Z,12.73
2019-03-20T06:40:15.868Z,12.18
2019-03-20T06:42:44.630Z,12.55
2019-03-20T06:45:17.737Z,12.35
2019-03-20T06:47:46.195Z,12.33
2019-03-20T06:50:18.584Z,12.75
2019-03-20T06:52:47.404Z,12.30
2019-03-20T06:55:15.871Z,13.10
2019-03-20T06:57:44.450Z,13.00
2019-03-20T07:00:36.643Z,12.55
2019-03-20T07:03:14.214Z,12.07
2019-03-20T07:06:03.942Z,12.98
2019-03-20T07:08:35.762Z,11.15
2019-03-20T07:11:06.383Z,11.40
2019-03-20T07:13:34.919Z,11.90
2019-03-20T07:16:03.608Z,11.97
2019-03-20T07:18:32.299Z,12.30
2019-03-20T07:21:01.035Z,12.40
2019-03-20T07:23:29.475Z,12.78
2019-03-20T07:25:58.261Z,14.10
2019-03-20T07:28:26.962Z,13.58
2019-03-20T07:30:55.715Z,14.13
2019-03-20T07:33:27.486Z,14.15
2019-03-20T07:35:56.140Z,13.72
2019-03-20T07:38:45.977Z,14.18
2019-03-20T07:41:14.443Z,14.00
2019-03-20T07:43:44.288Z,14.45
2019-03-20T07:46:12.832Z,13.25
2019-03-20T07:48:41.529Z,13.50
2019-03-20T07:51:10.251Z,14.07
2019-03-20T07:53:38.719Z,13.60
2019-03-20T07:56:07.547Z,13.83
2019-03-20T07:58:36.279Z,13.10
2019-03-20T08:01:10.450Z,13.90
2019-03-20T08:03:39.186Z,13.85
2019-03-20T08:06:09.580Z,14.05
2019-03-20T08:08:38.307Z,14.33
2019-03-20T08:11:06.776Z,14.03
2019-03-20T08:13:35.526Z,13.75
2019-03-20T08:16:04.242Z,14.50
2019-03-20T08:18:32.785Z,13.85
2019-03-20T08:21:01.238Z,13.30
2019-03-20T08:23:29.793Z,12.98
2019-03-20T08:25:58.238Z,13.10
2019-03-20T08:28:26.725Z,13.48
2019-03-20T08:30:56.798Z,12.80
2019-03-20T08:33:25.248Z,12.50
2019-03-20T08:36:02.659Z,12.80
2019-03-20T08:38:31.117Z,12.53
2019-03-20T08:40:59.595Z,12.25
2019-03-20T08:43:28.168Z,11.70
2019-03-20T08:45:56.741Z,11.15
2019-03-20T08:48:25.536Z,11.55
2019-03-20T08:50:54.109Z,11.45
2019-03-20T08:53:22.661Z,10.82
2019-03-20T08:55:51.199Z,10.48
2019-03-20T08:58:19.712Z,11.43
2019-03-20T09:00:49.645Z,9.55
2019-03-20T09:03:18.232Z,9.80
2019-03-20T09:05:46.967Z,9.10
2019-03-20T09:08:15.508Z,7.95
2019-03-20T09:10:43.960Z,7.78
2019-03-20T09:13:12.915Z,7.20
2019-03-20T09:15:41.418Z,6.45
2019-03-20T09:18:09.987Z,6.03
2019-03-20T09:20:38.756Z,4.28
2019-03-20T09:23:07.223Z,4.97
2019-03-20T09:25:36.024Z,5.17
2019-03-20T09:28:04.557Z,2.80
2019-03-20T09:30:33.014Z,2.90
2019-03-20T09:33:01.475Z,3.20
2019-03-20T09:35:30.072Z,4.37
2019-03-20T09:37:58.545Z,4.75
2019-03-20T09:40:27.829Z,3.92
2019-03-20T09:42:56.373Z,4.33
2019-03-20T09:45:25.272Z,4.20
2019-03-20T09:47:54.091Z,4.70
2019-03-20T09:50:23.949Z,4.30
2019-03-20T09:52:52.450Z,4.20
2019-03-20T09:55:20.921Z,4.75
2019-03-20T09:57:49.455Z,5.15
2019-03-20T10:00:27.745Z,5.30
2019-03-20T10:02:56.411Z,5.53
2019-03-20T10:05:25.381Z,5.25
2019-03-20T10:07:53.913Z,6.00
2019-03-20T10:10:30.314Z,5.80
2019-03-20T10:12:58.954Z,5.97
2019-03-20T10:15:33.478Z,5.60
2019-03-20T10:18:14.363Z,3.85
2019-03-20T10:23:29.325Z,3.25
2019-03-20T10:25:58.015Z,3.62
2019-03-20T10:28:26.520Z,3.85
2019-03-20T10:30:54.992Z,4.30
2019-03-20T10:33:23.535Z,4.00
2019-03-20T10:35:52.286Z,3.75
2019-03-20T10:38:20.775Z,3.33
2019-03-20T10:40:49.448Z,3.58
2019-03-20T10:43:18.046Z,3.75
2019-03-20T10:45:46.567Z,3.45
2019-03-20T10:48:15.240Z,3.62
2019-03-20T10:50:44.640Z,3.55
2019-03-20T10:53:13.538Z,3.62
2019-03-20T10:55:42.109Z,3.58
2019-03-20T10:58:11.001Z,3.50
2019-03-20T11:00:40.818Z,3.30
2019-03-20T11:03:09.661Z,3.55
2019-03-20T11:05:38.219Z,3.33
2019-03-20T11:08:07.138Z,3.60
2019-03-20T11:10:35.701Z,3.47
2019-03-20T11:13:04.270Z,3.02
2019-03-20T11:15:32.843Z,3.35
2019-03-20T11:18:01.553Z,3.65
2019-03-20T11:20:30.103Z,4.28
2019-03-20T11:22:58.683Z,3.40
2019-03-20T11:25:28.202Z,3.55
2019-03-20T11:27:56.932Z,3.83
2019-03-20T11:30:27.510Z,3.40
2019-03-20T11:32:56.300Z,3.90
2019-03-20T11:35:24.996Z,3.47
2019-03-20T11:37:53.855Z,3.45
2019-03-20T11:40:28.333Z,3.90
2019-03-20T11:42:56.910Z,3.80
2019-03-20T11:45:25.629Z,3.72
2019-03-20T11:47:54.603Z,3.67
2019-03-20T11:50:32.185Z,4.10
2019-03-20T11:53:00.924Z,3.87
2019-03-20T11:55:29.582Z,3.72
2019-03-20T11:57:58.156Z,3.60
2019-03-20T12:00:27.677Z,3.60
2019-03-20T12:02:57.940Z,3.58
2019-03-20T12:05:26.567Z,3.42
2019-03-20T12:07:55.160Z,3.60
2019-03-20T12:10:28.390Z,3.60
2019-03-20T12:12:56.980Z,3.80
2019-03-20T12:15:25.662Z,3.90
2019-03-20T12:17:54.247Z,3.70
2019-03-20T12:20:23.856Z,4.12
2019-03-20T12:22:52.668Z,4.00
2019-03-20T12:25:27.176Z,3.70
2019-03-20T12:27:55.819Z,3.80
2019-03-20T12:30:27.096Z,4.10
2019-03-20T12:32:55.746Z,3.90
2019-03-20T12:35:25.937Z,3.80
2019-03-20T12:37:54.514Z,3.85
2019-03-20T12:40:30.383Z,4.00
2019-03-20T12:42:59.044Z,3.75
2019-03-20T12:45:30.255Z,3.98
2019-03-20T12:47:59.526Z,4.22
2019-03-20T12:50:28.250Z,4.15
2019-03-20T12:52:56.942Z,3.70
2019-03-20T12:55:25.535Z,3.85
2019-03-20T12:57:54.095Z,3.85
2019-03-20T13:00:27.528Z,3.83
2019-03-20T13:02:56.375Z,3.87
2019-03-20T13:05:25.019Z,4.20
2019-03-20T13:07:53.585Z,4.35
2019-03-20T13:10:23.279Z,3.72
2019-03-20T13:12:52.120Z,4.83
2019-03-20T13:15:30.250Z,4.08
2019-03-20T13:17:58.892Z,4.28
2019-03-20T13:20:27.944Z,3.98
2019-03-20T13:23:08.091Z,4.37
2019-03-20T13:25:36.850Z,4.53
2019-03-20T13:28:05.762Z,4.03
2019-03-20T13:30:49.347Z,4.03
2019-03-20T13:33:25.570Z,3.92
2019-03-20T13:35:48.548Z,4.10
2019-03-20T13:38:17.093Z,4.67
2019-03-20T13:40:45.697Z,4.45
2019-03-20T13:43:14.290Z,3.87
2019-03-20T13:45:42.895Z,4.40
2019-03-20T13:48:11.775Z,4.17
2019-03-20T13:50:40.654Z,4.67
2019-03-20T13:53:09.224Z,4.35
2019-03-20T13:55:37.783Z,3.70
2019-03-20T13:58:06.525Z,3.60
2019-03-20T14:00:35.098Z,3.40
2019-03-20T14:03:03.669Z,3.60
2019-03-20T14:05:32.234Z,3.20
2019-03-20T14:08:00.794Z,3.58
2019-03-20T14:10:30.918Z,3.33
2019-03-20T14:12:59.482Z,3.52
2019-03-20T14:15:28.066Z,3.25
2019-03-20T14:17:56.619Z,3.22
2019-03-20T14:20:33.195Z,3.55
2019-03-20T14:23:02.608Z,3.50
2019-03-20T14:25:31.170Z,3.80
2019-03-20T14:27:59.742Z,3.77
2019-03-20T14:30:34.807Z,3.72
2019-03-20T14:33:03.405Z,3.70
2019-03-20T14:35:32.295Z,3.55
2019-03-20T14:38:01.146Z,3.62
2019-03-20T14:40:36.137Z,3.95
2019-03-20T14:43:01.981Z,3.58
2019-03-20T14:45:30.600Z,3.58
2019-03-20T14:47:59.600Z,3.83
2019-03-20T14:50:32.876Z,3.65
2019-03-20T14:53:01.478Z,3.70
2019-03-20T14:55:30.786Z,4.08
2019-03-20T14:57:59.611Z,3.87
2019-03-20T15:00:29.031Z,4.00
2019-03-20T15:02:57.611Z,4.15
2019-03-20T15:05:26.249Z,4.37
2019-03-20T15:07:55.171Z,3.95
2019-03-20T15:10:24.987Z,4.22
2019-03-20T15:12:54.568Z,4.35
2019-03-20T15:15:44.036Z,3.98
2019-03-20T15:18:12.594Z,4.30
2019-03-20T15:20:41.334Z,4.53
2019-03-20T15:23:10.133Z,4.05
2019-03-20T15:25:38.735Z,4.50
2019-03-20T15:28:07.963Z,4.72
2019-03-20T15:30:36.800Z,4.00
2019-03-20T15:33:05.465Z,4.53
2019-03-20T15:35:34.308Z,3.80
2019-03-20T15:38:02.869Z,4.20
2019-03-20T15:40:31.794Z,4.75
2019-03-20T15:43:00.655Z,4.72
2019-03-20T15:45:29.546Z,4.70
2019-03-20T15:47:58.401Z,4.25
2019-03-20T15:50:27.814Z,4.50
2019-03-20T15:52:56.387Z,5.00
2019-03-20T15:55:30.136Z,4.75
2019-03-20T15:57:59.066Z,4.40
2019-03-20T16:00:27.980Z,4.12
2019-03-20T16:03:10.972Z,4.40
2019-03-20T16:05:39.546Z,4.60
2019-03-20T16:08:08.122Z,4.97
2019-03-20T16:10:36.699Z,4.42
2019-03-20T16:13:05.398Z,4.53
2019-03-20T16:15:34.899Z,4.35
2019-03-20T16:18:03.453Z,4.20
2019-03-20T16:20:32.029Z,4.08
2019-03-20T16:23:00.588Z,3.83
2019-03-20T16:25:29.163Z,6.47
2019-03-20T16:27:57.721Z,4.20
2019-03-20T16:30:28.628Z,4.28
2019-03-20T16:32:57.177Z,4.33
2019-03-20T16:35:26.710Z,4.10
2019-03-20T16:37:55.264Z,4.20
2019-03-20T16:40:27.231Z,4.17
2019-03-20T16:42:55.820Z,4.05
2019-03-20T16:45:31.592Z,3.75
2019-03-20T16:48:00.604Z,3.98
2019-03-20T16:50:29.276Z,4.20
2019-03-20T16:52:57.901Z,4.30
2019-03-20T16:55:26.458Z,4.30
2019-03-20T16:57:55.159Z,4.40
2019-03-20T17:00:29.381Z,4.65
2019-03-20T17:02:58.103Z,4.20
2019-03-20T17:05:27.705Z,4.87
2019-03-20T17:07:56.360Z,4.60
2019-03-20T17:10:27.435Z,4.67
2019-03-20T17:12:56.254Z,4.35
2019-03-20T17:15:26.947Z,4.65
2019-03-20T17:17:55.786Z,4.83
2019-03-20T17:20:24.782Z,4.58
2019-03-20T17:22:53.421Z,4.95
2019-03-20T17:25:22.331Z,4.40
2019-03-20T17:27:50.903Z,4.58
2019-03-20T17:30:25.431Z,4.55
2019-03-20T17:32:54.167Z,4.55
2019-03-20T17:35:22.789Z,4.85
2019-03-20T17:37:51.338Z,5.65
2019-03-20T17:40:23.233Z,6.17
2019-03-20T17:42:51.786Z,6.45
2019-03-20T17:45:25.548Z,5.60
2019-03-20T17:47:54.135Z,4.72
2019-03-20T17:50:24.730Z,5.60
2019-03-20T17:52:53.671Z,7.10
2019-03-20T17:55:22.386Z,8.35
2019-03-20T17:57:51.363Z,7.25
2019-03-20T18:00:26.068Z,7.10
2019-03-20T18:02:54.638Z,5.97
2019-03-20T18:05:23.494Z,6.25
2019-03-20T18:07:52.048Z,5.80
2019-03-20T18:10:20.950Z,5.40
2019-03-20T18:12:49.523Z,5.55
2019-03-20T18:15:18.954Z,4.65
2019-03-20T18:17:47.778Z,5.35
2019-03-20T18:20:18.076Z,5.42
2019-03-20T18:22:46.679Z,5.28
2019-03-20T18:25:15.436Z,5.00
2019-03-20T18:27:44.055Z,5.00
2019-03-20T18:30:20.429Z,5.00
2019-03-20T18:32:48.983Z,5.05
2019-03-20T18:35:17.990Z,5.20
2019-03-20T18:37:46.715Z,5.20
2019-03-20T18:40:19.313Z,5.00
2019-03-20T18:42:47.844Z,4.67
2019-03-20T18:45:27.360Z,4.62
2019-03-20T18:47:56.238Z,5.30
2019-03-20T18:50:25.719Z,5.28
2019-03-20T18:52:54.512Z,5.00
2019-03-20T18:55:23.142Z,5.28
2019-03-20T18:57:51.675Z,5.55
2019-03-20T19:00:30.738Z,6.05
2019-03-20T19:03:17.331Z,6.08
2019-03-20T19:05:54.517Z,5.92
2019-03-20T19:08:23.399Z,6.37
2019-03-20T19:10:52.303Z,5.70
2019-03-20T19:13:21.103Z,6.33
2019-03-20T19:15:49.626Z,6.45
2019-03-20T19:18:18.399Z,6.35
2019-03-20T19:20:46.979Z,6.72
2019-03-20T19:23:15.689Z,6.28
2019-03-20T19:25:44.166Z,6.28
2019-03-20T19:28:12.610Z,6.12
2019-03-20T19:30:47.150Z,5.87
2019-03-20T19:33:15.695Z,6.20
2019-03-20T19:35:44.145Z,6.17
2019-03-20T19:38:12.669Z,6.83
2019-03-20T19:40:41.126Z,6.35
2019-03-20T19:43:09.829Z,5.67
2019-03-20T19:45:38.270Z,6.17
2019-03-20T19:48:06.798Z,6.42
2019-03-20T19:50:41.315Z,6.37
2019-03-20T19:53:10.207Z,6.95
2019-03-20T19:55:38.747Z,6.50
2019-03-20T19:58:07.203Z,6.58
2019-03-20T20:00:35.968Z,6.37
2019-03-20T20:03:04.491Z,6.45
2019-03-20T20:05:32.944Z,6.35
2019-03-20T20:08:01.651Z,6.37
2019-03-20T20:10:30.379Z,6.67
2019-03-20T20:12:58.826Z,6.12
2019-03-20T20:15:31.699Z,6.45
2019-03-20T20:18:00.397Z,7.20
2019-03-20T20:20:33.417Z,6.47
2019-03-20T20:23:04.274Z,6.40
2019-03-20T20:25:32.303Z,6.80
2019-03-20T20:28:00.737Z,6.42
2019-03-20T20:30:29.369Z,6.83
2019-03-20T20:32:57.813Z,7.17
2019-03-20T20:35:26.349Z,7.78
2019-03-20T20:37:55.226Z,7.97
2019-03-20T20:40:28.115Z,7.47
2019-03-20T20:42:56.565Z,9.38
2019-03-20T20:45:25.066Z,6.97
2019-03-20T20:47:53.532Z,8.18
2019-03-20T20:50:21.988Z,11.63
2019-03-20T20:52:50.567Z,12.15
2019-03-20T20:55:22.793Z,9.03
2019-03-20T20:57:51.378Z,7.20
2019-03-20T21:00:24.714Z,7.28
2019-03-20T21:02:53.268Z,7.15
2019-03-20T21:05:22.249Z,7.90
2019-03-20T21:07:50.726Z,7.42
2019-03-20T21:10:20.397Z,7.42
2019-03-20T21:12:56.240Z,7.17
2019-03-20T21:15:34.525Z,7.45
2019-03-20T21:18:14.745Z,7.37
2019-03-20T21:20:43.923Z,7.40
2019-03-20T21:23:39.694Z,7.25
2019-03-20T21:26:29.398Z,7.55
2019-03-20T21:29:34.543Z,7.35
2019-03-20T21:32:12.213Z,7.87
2019-03-20T21:35:00.640Z,8.73
2019-03-20T21:37:49.095Z,8.70
2019-03-20T21:40:19.444Z,8.15
2019-03-20T21:43:10.657Z,8.65
2019-03-20T21:45:48.038Z,8.10
2019-03-20T21:48:16.484Z,8.48
2019-03-20T21:51:00.042Z,9.55
2019-03-20T21:53:40.564Z,10.45
2019-03-20T21:56:33.937Z,9.80
2019-03-20T21:59:05.449Z,10.23
2019-03-20T22:01:53.303Z,10.23
2019-03-20T22:04:21.737Z,9.23
2019-03-20T22:07:09.206Z,8.38
2019-03-20T22:09:56.038Z,8.23
2019-03-20T22:12:42.507Z,7.87
2019-03-20T22:15:31.839Z,7.90
2019-03-20T22:18:37.162Z,8.00
2019-03-20T22:21:20.657Z,8.43
2019-03-20T22:24:17.685Z,8.50
2019-03-20T22:26:49.202Z,7.03
2019-03-20T22:29:42.159Z,7.85
2019-03-20T22:32:31.582Z,7.87
2019-03-20T22:35:14.369Z,8.43
2019-03-20T22:37:43.086Z,7.03
2019-03-20T22:40:17.286Z,6.50
2019-03-20T22:42:51.555Z,8.35
2019-03-20T22:45:38.110Z,8.10
2019-03-20T22:48:21.743Z,9.70
2019-03-20T22:51:24.945Z,9.33
2019-03-20T22:54:07.942Z,9.23
2019-03-20T22:56:42.281Z,7.90
2019-03-20T22:59:10.752Z,7.60
2019-03-20T23:01:45.814Z,7.55
2019-03-20T23:04:29.339Z,7.62
2019-03-20T23:06:57.862Z,8.18
2019-03-20T23:09:26.327Z,7.58
2019-03-20T23:11:55.247Z,7.85
2019-03-20T23:14:23.979Z,7.50
2019-03-20T23:16:52.421Z,7.00
2019-03-20T23:19:21.306Z,7.67
2019-03-20T23:21:49.765Z,7.25
2019-03-20T23:24:18.597Z,7.47
2019-03-20T23:26:47.391Z,6.80
2019-03-20T23:29:15.831Z,7.28
2019-03-20T23:31:44.608Z,7.40
2019-03-20T23:34:13.050Z,6.87
2019-03-20T23:36:41.935Z,7.28
2019-03-20T23:39:10.393Z,7.15
2019-03-20T23:41:39.143Z,6.97
2019-03-20T23:44:07.656Z,7.05
2019-03-20T23:46:36.530Z,7.50
2019-03-20T23:49:11.214Z,7.00
2019-03-20T23:54:07.665Z,7.05
2019-03-20T23:56:38.715Z,7.35
2019-03-20T23:59:07.410Z,7.50
